sensor_id;sensor_type;location;lat;lon;timestamp;temperature;humidity
5617;DHT22;2830;50.656;7.568;2022-10-31T00:01:29;8.20;99.90
5617;DHT22;2830;50.656;7.568;2022-10-31T00:03:56;8.20;99.90
5617;DHT22;2830;50.656;7.568;2022-10-31T00:06:23;8.20;99.90
5617;DHT22;2830;50.656;7.568;2022-10-31T00:08:55;8.20;99.90
5617;DHT22;2830;50.656;7.568;2022-10-31T00:11:22;8.20;99.90
5617;DHT22;2830;50.656;7.568;2022-10-31T00:13:49;8.20;99.90
5617;DHT22;2830;50.656;7.568;2022-10-31T00:16:21;8.10;99.90
5617;DHT22;2830;50.656;7.568;2022-10-31T00:18:53;8.10;99.90
5617;DHT22;2830;50.656;7.568;2022-10-31T00:21:20;8.10;99.90
5617;DHT22;2830;50.656;7.568;2022-10-31T00:23:47;8.10;99.90
5617;DHT22;2830;50.656;7.568;2022-10-31T00:26:14;8.10;99.90
5617;DHT22;2830;50.656;7.568;2022-10-31T00:28:41;8.10;99.90
5617;DHT22;2830;50.656;7.568;2022-10-31T00:31:10;8.10;99.90
5617;DHT22;2830;50.656;7.568;2022-10-31T00:33:38;8.10;99.90
5617;DHT22;2830;50.656;7.568;2022-10-31T00:36:06;8.10;99.90
5617;DHT22;2830;50.656;7.568;2022-10-31T00:38:33;8.10;99.90
5617;DHT22;2830;50.656;7.568;2022-10-31T00:41:00;8.00;99.90
5617;DHT22;2830;50.656;7.568;2022-10-31T00:43:27;8.00;99.90
5617;DHT22;2830;50.656;7.568;2022-10-31T00:45:53;7.90;99.90
5617;DHT22;2830;50.656;7.568;2022-10-31T00:48:20;8.00;99.90
5617;DHT22;2830;50.656;7.568;2022-10-31T00:50:46;8.00;99.90
5617;DHT22;2830;50.656;7.568;2022-10-31T00:53:13;8.00;99.90
5617;DHT22;2830;50.656;7.568;2022-10-31T00:55:40;7.80;99.90
5617;DHT22;2830;50.656;7.568;2022-10-31T00:58:06;7.90;99.90
5617;DHT22;2830;50.656;7.568;2022-10-31T01:00:33;7.80;99.90
5617;DHT22;2830;50.656;7.568;2022-10-31T01:03:00;7.90;99.90
5617;DHT22;2830;50.656;7.568;2022-10-31T01:05:27;8.00;99.90
5617;DHT22;2830;50.656;7.568;2022-10-31T01:07:53;7.90;99.90
5617;DHT22;2830;50.656;7.568;2022-10-31T01:10:20;8.00;99.90
5617;DHT22;2830;50.656;7.568;2022-10-31T01:12:48;8.10;99.90
5617;DHT22;2830;50.656;7.568;2022-10-31T01:15:21;8.00;99.90
5617;DHT22;2830;50.656;7.568;2022-10-31T01:17:48;8.00;99.90
5617;DHT22;2830;50.656;7.568;2022-10-31T01:20:16;8.00;99.90
5617;DHT22;2830;50.656;7.568;2022-10-31T01:22:43;8.00;99.90
5617;DHT22;2830;50.656;7.568;2022-10-31T01:25:10;8.00;99.90
5617;DHT22;2830;50.656;7.568;2022-10-31T01:27:37;8.10;99.90
5617;DHT22;2830;50.656;7.568;2022-10-31T01:30:05;8.00;99.90
5617;DHT22;2830;50.656;7.568;2022-10-31T01:32:31;8.00;99.90
5617;DHT22;2830;50.656;7.568;2022-10-31T01:34:58;8.00;99.90
5617;DHT22;2830;50.656;7.568;2022-10-31T01:37:25;8.00;99.90
5617;DHT22;2830;50.656;7.568;2022-10-31T01:39:52;8.10;99.90
5617;DHT22;2830;50.656;7.568;2022-10-31T01:42:20;8.20;99.90
5617;DHT22;2830;50.656;7.568;2022-10-31T01:44:53;8.20;99.90
5617;DHT22;2830;50.656;7.568;2022-10-31T01:48:07;8.30;99.90
5617;DHT22;2830;50.656;7.568;2022-10-31T01:50:40;8.30;99.90
5617;DHT22;2830;50.656;7.568;2022-10-31T01:53:08;8.30;99.90
5617;DHT22;2830;50.656;7.568;2022-10-31T01:55:40;8.30;99.90
5617;DHT22;2830;50.656;7.568;2022-10-31T01:58:13;8.30;99.90
5617;DHT22;2830;50.656;7.568;2022-10-31T02:00:43;8.20;99.90
5617;DHT22;2830;50.656;7.568;2022-10-31T02:03:11;8.30;99.90
5617;DHT22;2830;50.656;7.568;2022-10-31T02:05:38;8.30;99.90
5617;DHT22;2830;50.656;7.568;2022-10-31T02:08:13;8.30;99.90
5617;DHT22;2830;50.656;7.568;2022-10-31T02:10:42;8.30;99.90
5617;DHT22;2830;50.656;7.568;2022-10-31T02:13:09;8.20;99.90
5617;DHT22;2830;50.656;7.568;2022-10-31T02:15:39;8.20;99.90
5617;DHT22;2830;50.656;7.568;2022-10-31T02:18:07;8.20;99.90
5617;DHT22;2830;50.656;7.568;2022-10-31T02:20:42;8.20;99.90
5617;DHT22;2830;50.656;7.568;2022-10-31T02:23:19;8.00;99.90
5617;DHT22;2830;50.656;7.568;2022-10-31T02:26:07;8.00;99.90
5617;DHT22;2830;50.656;7.568;2022-10-31T02:31:32;7.90;99.90
5617;DHT22;2830;50.656;7.568;2022-10-31T02:34:20;7.90;99.90
5617;DHT22;2830;50.656;7.568;2022-10-31T02:37:02;7.90;99.90
5617;DHT22;2830;50.656;7.568;2022-10-31T02:39:51;8.00;99.90
5617;DHT22;2830;50.656;7.568;2022-10-31T02:46:11;7.90;99.90
5617;DHT22;2830;50.656;7.568;2022-10-31T02:48:41;7.90;99.90
5617;DHT22;2830;50.656;7.568;2022-10-31T02:51:12;7.80;99.90
5617;DHT22;2830;50.656;7.568;2022-10-31T02:53:39;7.80;99.90
5617;DHT22;2830;50.656;7.568;2022-10-31T02:58:39;7.70;99.90
5617;DHT22;2830;50.656;7.568;2022-10-31T03:04:11;7.60;99.90
5617;DHT22;2830;50.656;7.568;2022-10-31T03:06:44;7.60;99.90
5617;DHT22;2830;50.656;7.568;2022-10-31T03:12:33;7.60;99.90
5617;DHT22;2830;50.656;7.568;2022-10-31T03:15:27;7.60;99.90
5617;DHT22;2830;50.656;7.568;2022-10-31T03:20:54;7.60;99.90
5617;DHT22;2830;50.656;7.568;2022-10-31T03:23:24;7.60;99.90
5617;DHT22;2830;50.656;7.568;2022-10-31T03:25:53;7.50;99.90
5617;DHT22;2830;50.656;7.568;2022-10-31T03:28:28;7.40;99.90
5617;DHT22;2830;50.656;7.568;2022-10-31T03:30:57;7.40;99.90
5617;DHT22;2830;50.656;7.568;2022-10-31T03:33:31;7.40;99.90
5617;DHT22;2830;50.656;7.568;2022-10-31T03:36:00;7.40;99.90
5617;DHT22;2830;50.656;7.568;2022-10-31T03:38:29;7.40;99.90
5617;DHT22;2830;50.656;7.568;2022-10-31T03:40:59;7.40;99.90
5617;DHT22;2830;50.656;7.568;2022-10-31T03:43:32;7.50;99.90
5617;DHT22;2830;50.656;7.568;2022-10-31T03:45:59;7.50;99.90
5617;DHT22;2830;50.656;7.568;2022-10-31T03:48:26;7.50;99.90
5617;DHT22;2830;50.656;7.568;2022-10-31T03:53:32;7.60;99.90
5617;DHT22;2830;50.656;7.568;2022-10-31T03:56:37;7.60;99.90
5617;DHT22;2830;50.656;7.568;2022-10-31T03:59:12;7.50;99.90
5617;DHT22;2830;50.656;7.568;2022-10-31T04:01:44;7.40;99.90
5617;DHT22;2830;50.656;7.568;2022-10-31T04:04:13;7.40;99.90
5617;DHT22;2830;50.656;7.568;2022-10-31T04:06:42;7.40;99.90
5617;DHT22;2830;50.656;7.568;2022-10-31T04:09:09;7.40;99.90
5617;DHT22;2830;50.656;7.568;2022-10-31T04:11:40;7.40;99.90
5617;DHT22;2830;50.656;7.568;2022-10-31T04:14:09;7.30;99.90
5617;DHT22;2830;50.656;7.568;2022-10-31T04:16:40;7.40;99.90
5617;DHT22;2830;50.656;7.568;2022-10-31T04:19:09;7.40;99.90
5617;DHT22;2830;50.656;7.568;2022-10-31T04:21:35;7.40;99.90
5617;DHT22;2830;50.656;7.568;2022-10-31T04:24:02;7.40;99.90
5617;DHT22;2830;50.656;7.568;2022-10-31T04:26:29;7.30;99.90
5617;DHT22;2830;50.656;7.568;2022-10-31T04:28:55;7.20;99.90
5617;DHT22;2830;50.656;7.568;2022-10-31T04:31:22;7.20;99.90
5617;DHT22;2830;50.656;7.568;2022-10-31T04:33:49;7.20;99.90
5617;DHT22;2830;50.656;7.568;2022-10-31T04:36:15;7.20;99.90
5617;DHT22;2830;50.656;7.568;2022-10-31T04:38:42;7.10;99.90
5617;DHT22;2830;50.656;7.568;2022-10-31T04:41:09;7.20;99.90
5617;DHT22;2830;50.656;7.568;2022-10-31T04:43:35;7.20;99.90
5617;DHT22;2830;50.656;7.568;2022-10-31T04:46:02;7.20;99.90
5617;DHT22;2830;50.656;7.568;2022-10-31T04:48:29;7.20;99.90
5617;DHT22;2830;50.656;7.568;2022-10-31T04:51:00;7.20;99.90
5617;DHT22;2830;50.656;7.568;2022-10-31T04:53:27;7.20;99.90
5617;DHT22;2830;50.656;7.568;2022-10-31T04:55:54;7.20;99.90
5617;DHT22;2830;50.656;7.568;2022-10-31T04:58:21;7.20;99.90
5617;DHT22;2830;50.656;7.568;2022-10-31T05:00:47;7.10;99.90
5617;DHT22;2830;50.656;7.568;2022-10-31T05:03:17;7.10;99.90
5617;DHT22;2830;50.656;7.568;2022-10-31T05:05:44;7.10;99.90
5617;DHT22;2830;50.656;7.568;2022-10-31T05:08:10;7.00;99.90
5617;DHT22;2830;50.656;7.568;2022-10-31T05:10:37;7.00;99.90
5617;DHT22;2830;50.656;7.568;2022-10-31T05:13:04;6.90;99.90
5617;DHT22;2830;50.656;7.568;2022-10-31T05:15:32;6.90;99.90
5617;DHT22;2830;50.656;7.568;2022-10-31T05:17:58;7.00;99.90
5617;DHT22;2830;50.656;7.568;2022-10-31T05:20:28;7.00;99.90
5617;DHT22;2830;50.656;7.568;2022-10-31T05:22:57;7.00;99.90
5617;DHT22;2830;50.656;7.568;2022-10-31T05:25:26;7.00;99.90
5617;DHT22;2830;50.656;7.568;2022-10-31T05:27:54;7.00;99.90
5617;DHT22;2830;50.656;7.568;2022-10-31T05:30:24;7.00;99.90
5617;DHT22;2830;50.656;7.568;2022-10-31T05:32:51;7.00;99.90
5617;DHT22;2830;50.656;7.568;2022-10-31T05:35:20;7.00;99.90
5617;DHT22;2830;50.656;7.568;2022-10-31T05:37:47;7.00;99.90
5617;DHT22;2830;50.656;7.568;2022-10-31T05:40:15;6.90;99.90
5617;DHT22;2830;50.656;7.568;2022-10-31T05:42:43;6.80;99.90
5617;DHT22;2830;50.656;7.568;2022-10-31T05:45:13;6.80;99.90
5617;DHT22;2830;50.656;7.568;2022-10-31T05:47:39;6.90;99.90
5617;DHT22;2830;50.656;7.568;2022-10-31T05:50:07;6.90;99.90
5617;DHT22;2830;50.656;7.568;2022-10-31T05:52:35;6.90;99.90
5617;DHT22;2830;50.656;7.568;2022-10-31T05:55:02;7.00;99.90
5617;DHT22;2830;50.656;7.568;2022-10-31T05:57:29;7.00;99.90
5617;DHT22;2830;50.656;7.568;2022-10-31T05:59:57;7.00;99.90
5617;DHT22;2830;50.656;7.568;2022-10-31T06:02:24;6.90;99.90
5617;DHT22;2830;50.656;7.568;2022-10-31T06:04:51;7.00;99.90
5617;DHT22;2830;50.656;7.568;2022-10-31T06:07:18;6.90;99.90
5617;DHT22;2830;50.656;7.568;2022-10-31T06:09:45;6.90;99.90
5617;DHT22;2830;50.656;7.568;2022-10-31T06:12:11;6.80;99.90
5617;DHT22;2830;50.656;7.568;2022-10-31T06:14:38;6.80;99.90
5617;DHT22;2830;50.656;7.568;2022-10-31T06:17:04;6.80;99.90
5617;DHT22;2830;50.656;7.568;2022-10-31T06:19:31;6.80;99.90
5617;DHT22;2830;50.656;7.568;2022-10-31T06:21:58;6.80;99.90
5617;DHT22;2830;50.656;7.568;2022-10-31T06:24:24;6.70;99.90
5617;DHT22;2830;50.656;7.568;2022-10-31T06:26:52;6.70;99.90
5617;DHT22;2830;50.656;7.568;2022-10-31T06:29:19;6.70;99.90
5617;DHT22;2830;50.656;7.568;2022-10-31T06:31:45;6.60;99.90
5617;DHT22;2830;50.656;7.568;2022-10-31T06:34:12;6.70;99.90
5617;DHT22;2830;50.656;7.568;2022-10-31T06:36:38;6.70;99.90
5617;DHT22;2830;50.656;7.568;2022-10-31T06:39:05;6.60;99.90
5617;DHT22;2830;50.656;7.568;2022-10-31T06:41:32;6.70;99.90
5617;DHT22;2830;50.656;7.568;2022-10-31T06:43:58;6.70;99.90
5617;DHT22;2830;50.656;7.568;2022-10-31T06:46:32;6.80;99.90
5617;DHT22;2830;50.656;7.568;2022-10-31T06:48:58;6.90;99.90
5617;DHT22;2830;50.656;7.568;2022-10-31T06:51:25;6.90;99.90
5617;DHT22;2830;50.656;7.568;2022-10-31T06:53:52;7.00;99.90
5617;DHT22;2830;50.656;7.568;2022-10-31T06:56:18;7.10;99.90
5617;DHT22;2830;50.656;7.568;2022-10-31T06:58:45;7.20;99.90
5617;DHT22;2830;50.656;7.568;2022-10-31T07:01:12;7.40;99.90
5617;DHT22;2830;50.656;7.568;2022-10-31T07:03:39;7.40;99.90
5617;DHT22;2830;50.656;7.568;2022-10-31T07:06:05;7.60;99.90
5617;DHT22;2830;50.656;7.568;2022-10-31T07:08:32;7.70;99.90
5617;DHT22;2830;50.656;7.568;2022-10-31T07:11:00;7.70;99.90
5617;DHT22;2830;50.656;7.568;2022-10-31T07:13:27;7.80;99.90
5617;DHT22;2830;50.656;7.568;2022-10-31T07:15:55;7.90;99.90
5617;DHT22;2830;50.656;7.568;2022-10-31T07:18:21;8.00;99.90
5617;DHT22;2830;50.656;7.568;2022-10-31T07:20:48;8.10;99.90
5617;DHT22;2830;50.656;7.568;2022-10-31T07:23:15;8.20;99.90
5617;DHT22;2830;50.656;7.568;2022-10-31T07:25:42;8.50;99.90
5617;DHT22;2830;50.656;7.568;2022-10-31T07:28:09;8.70;99.90
5617;DHT22;2830;50.656;7.568;2022-10-31T07:30:38;8.80;99.90
5617;DHT22;2830;50.656;7.568;2022-10-31T07:33:05;8.90;99.90
5617;DHT22;2830;50.656;7.568;2022-10-31T07:35:32;8.90;99.90
5617;DHT22;2830;50.656;7.568;2022-10-31T07:38:10;9.10;99.90
5617;DHT22;2830;50.656;7.568;2022-10-31T07:40:37;9.50;99.90
5617;DHT22;2830;50.656;7.568;2022-10-31T07:43:04;9.60;99.90
5617;DHT22;2830;50.656;7.568;2022-10-31T07:45:38;9.80;99.90
5617;DHT22;2830;50.656;7.568;2022-10-31T07:48:05;10.10;99.90
5617;DHT22;2830;50.656;7.568;2022-10-31T07:50:32;10.30;99.90
5617;DHT22;2830;50.656;7.568;2022-10-31T07:53:03;10.50;99.90
5617;DHT22;2830;50.656;7.568;2022-10-31T07:55:31;10.40;99.90
5617;DHT22;2830;50.656;7.568;2022-10-31T08:00:31;10.50;99.90
5617;DHT22;2830;50.656;7.568;2022-10-31T08:03:03;10.60;99.90
5617;DHT22;2830;50.656;7.568;2022-10-31T08:05:30;10.50;99.90
5617;DHT22;2830;50.656;7.568;2022-10-31T08:07:57;10.50;99.90
5617;DHT22;2830;50.656;7.568;2022-10-31T08:10:26;10.70;99.90
5617;DHT22;2830;50.656;7.568;2022-10-31T08:13:01;11.10;99.90
5617;DHT22;2830;50.656;7.568;2022-10-31T08:15:29;11.50;99.90
5617;DHT22;2830;50.656;7.568;2022-10-31T08:17:56;11.90;99.90
5617;DHT22;2830;50.656;7.568;2022-10-31T08:20:24;12.00;99.90
5617;DHT22;2830;50.656;7.568;2022-10-31T08:22:59;12.40;99.90
5617;DHT22;2830;50.656;7.568;2022-10-31T08:25:27;12.60;99.90
5617;DHT22;2830;50.656;7.568;2022-10-31T08:27:59;12.50;99.90
5617;DHT22;2830;50.656;7.568;2022-10-31T08:30:29;12.60;99.90
5617;DHT22;2830;50.656;7.568;2022-10-31T08:35:38;12.50;99.90
5617;DHT22;2830;50.656;7.568;2022-10-31T08:38:05;12.40;99.90
5617;DHT22;2830;50.656;7.568;2022-10-31T08:40:34;12.80;99.90
5617;DHT22;2830;50.656;7.568;2022-10-31T08:43:04;13.00;99.90
5617;DHT22;2830;50.656;7.568;2022-10-31T08:45:32;13.20;99.90
5617;DHT22;2830;50.656;7.568;2022-10-31T08:48:00;13.50;99.90
5617;DHT22;2830;50.656;7.568;2022-10-31T08:50:29;13.80;99.90
5617;DHT22;2830;50.656;7.568;2022-10-31T08:53:05;13.60;99.90
5617;DHT22;2830;50.656;7.568;2022-10-31T08:55:36;13.70;99.90
5617;DHT22;2830;50.656;7.568;2022-10-31T08:58:05;13.60;99.90
5617;DHT22;2830;50.656;7.568;2022-10-31T09:00:34;13.80;99.90
5617;DHT22;2830;50.656;7.568;2022-10-31T09:03:03;14.20;99.90
5617;DHT22;2830;50.656;7.568;2022-10-31T09:05:32;14.50;99.90
5617;DHT22;2830;50.656;7.568;2022-10-31T09:08:00;14.50;99.90
5617;DHT22;2830;50.656;7.568;2022-10-31T09:10:28;14.80;99.90
5617;DHT22;2830;50.656;7.568;2022-10-31T09:12:57;14.90;99.90
5617;DHT22;2830;50.656;7.568;2022-10-31T09:15:25;14.70;99.90
5617;DHT22;2830;50.656;7.568;2022-10-31T09:17:52;14.60;99.90
5617;DHT22;2830;50.656;7.568;2022-10-31T09:20:19;14.60;99.90
5617;DHT22;2830;50.656;7.568;2022-10-31T09:22:47;14.40;99.90
5617;DHT22;2830;50.656;7.568;2022-10-31T09:25:13;14.40;99.90
5617;DHT22;2830;50.656;7.568;2022-10-31T09:27:40;14.60;99.90
5617;DHT22;2830;50.656;7.568;2022-10-31T09:30:07;14.70;99.90
5617;DHT22;2830;50.656;7.568;2022-10-31T09:32:34;14.70;99.90
5617;DHT22;2830;50.656;7.568;2022-10-31T09:35:00;14.80;99.90
5617;DHT22;2830;50.656;7.568;2022-10-31T09:37:27;15.00;99.90
5617;DHT22;2830;50.656;7.568;2022-10-31T09:39:54;15.10;99.90
5617;DHT22;2830;50.656;7.568;2022-10-31T09:42:59;15.20;99.90
5617;DHT22;2830;50.656;7.568;2022-10-31T09:45:53;15.40;99.90
5617;DHT22;2830;50.656;7.568;2022-10-31T09:48:40;15.40;99.90
5617;DHT22;2830;50.656;7.568;2022-10-31T09:51:15;15.30;99.90
5617;DHT22;2830;50.656;7.568;2022-10-31T09:53:54;15.40;99.90
5617;DHT22;2830;50.656;7.568;2022-10-31T09:56:23;15.40;99.90
5617;DHT22;2830;50.656;7.568;2022-10-31T09:59:00;15.50;99.90
5617;DHT22;2830;50.656;7.568;2022-10-31T10:01:39;15.60;99.90
5617;DHT22;2830;50.656;7.568;2022-10-31T10:04:16;15.70;99.90
5617;DHT22;2830;50.656;7.568;2022-10-31T10:06:48;16.00;99.90
5617;DHT22;2830;50.656;7.568;2022-10-31T10:09:16;16.00;99.90
5617;DHT22;2830;50.656;7.568;2022-10-31T10:17:00;17.20;99.90
5617;DHT22;2830;50.656;7.568;2022-10-31T10:22:12;18.00;99.90
5617;DHT22;2830;50.656;7.568;2022-10-31T10:30:59;18.60;99.90
5617;DHT22;2830;50.656;7.568;2022-10-31T10:33:41;18.80;99.90
5617;DHT22;2830;50.656;7.568;2022-10-31T10:36:21;18.90;99.90
5617;DHT22;2830;50.656;7.568;2022-10-31T10:38:58;19.00;99.90
5617;DHT22;2830;50.656;7.568;2022-10-31T10:41:31;18.80;99.90
5617;DHT22;2830;50.656;7.568;2022-10-31T10:44:00;18.60;99.90
5617;DHT22;2830;50.656;7.568;2022-10-31T10:46:48;18.80;99.90
5617;DHT22;2830;50.656;7.568;2022-10-31T10:49:50;18.70;99.90
5617;DHT22;2830;50.656;7.568;2022-10-31T10:55:35;19.20;99.90
5617;DHT22;2830;50.656;7.568;2022-10-31T10:58:06;19.30;99.90
5617;DHT22;2830;50.656;7.568;2022-10-31T11:00:45;19.20;99.90
5617;DHT22;2830;50.656;7.568;2022-10-31T11:03:17;19.30;99.90
5617;DHT22;2830;50.656;7.568;2022-10-31T11:05:53;19.50;99.90
5617;DHT22;2830;50.656;7.568;2022-10-31T11:08:25;19.60;99.90
5617;DHT22;2830;50.656;7.568;2022-10-31T11:11:23;19.70;99.90
5617;DHT22;2830;50.656;7.568;2022-10-31T11:14:03;19.90;99.90
5617;DHT22;2830;50.656;7.568;2022-10-31T11:16:33;20.10;99.90
5617;DHT22;2830;50.656;7.568;2022-10-31T11:19:17;20.20;99.90
5617;DHT22;2830;50.656;7.568;2022-10-31T11:21:45;20.10;99.90
5617;DHT22;2830;50.656;7.568;2022-10-31T11:24:24;20.30;99.90
5617;DHT22;2830;50.656;7.568;2022-10-31T11:27:23;20.30;99.90
5617;DHT22;2830;50.656;7.568;2022-10-31T11:29:50;20.40;99.90
5617;DHT22;2830;50.656;7.568;2022-10-31T11:32:25;20.20;99.90
5617;DHT22;2830;50.656;7.568;2022-10-31T11:34:56;20.20;99.90
5617;DHT22;2830;50.656;7.568;2022-10-31T11:37:26;20.10;99.90
5617;DHT22;2830;50.656;7.568;2022-10-31T11:39:55;20.20;99.90
5617;DHT22;2830;50.656;7.568;2022-10-31T11:42:27;20.40;99.90
5617;DHT22;2830;50.656;7.568;2022-10-31T11:44:55;20.40;99.90
5617;DHT22;2830;50.656;7.568;2022-10-31T11:47:29;20.30;99.90
5617;DHT22;2830;50.656;7.568;2022-10-31T11:49:57;20.60;99.90
5617;DHT22;2830;50.656;7.568;2022-10-31T11:52:31;20.70;99.90
5617;DHT22;2830;50.656;7.568;2022-10-31T11:55:01;20.10;99.90
5617;DHT22;2830;50.656;7.568;2022-10-31T11:57:29;20.10;99.90
5617;DHT22;2830;50.656;7.568;2022-10-31T11:59:58;20.00;99.90
5617;DHT22;2830;50.656;7.568;2022-10-31T12:02:26;19.90;99.90
5617;DHT22;2830;50.656;7.568;2022-10-31T12:05:02;20.20;99.90
5617;DHT22;2830;50.656;7.568;2022-10-31T12:07:31;20.20;99.90
5617;DHT22;2830;50.656;7.568;2022-10-31T12:09:57;20.40;99.90
5617;DHT22;2830;50.656;7.568;2022-10-31T12:13:11;20.60;99.90
5617;DHT22;2830;50.656;7.568;2022-10-31T12:15:33;20.60;99.90
5617;DHT22;2830;50.656;7.568;2022-10-31T12:21:07;20.80;99.90
5617;DHT22;2830;50.656;7.568;2022-10-31T12:23:52;20.90;99.90
5617;DHT22;2830;50.656;7.568;2022-10-31T12:29:14;21.50;99.90
5617;DHT22;2830;50.656;7.568;2022-10-31T12:31:49;21.60;99.90
5617;DHT22;2830;50.656;7.568;2022-10-31T12:37:06;21.60;99.90
5617;DHT22;2830;50.656;7.568;2022-10-31T12:39:58;21.40;99.90
5617;DHT22;2830;50.656;7.568;2022-10-31T12:48:28;20.40;99.90
5617;DHT22;2830;50.656;7.568;2022-10-31T12:51:40;20.00;99.90
5617;DHT22;2830;50.656;7.568;2022-10-31T12:54:37;19.80;99.90
5617;DHT22;2830;50.656;7.568;2022-10-31T12:57:33;20.00;99.90
5617;DHT22;2830;50.656;7.568;2022-10-31T13:00:04;19.70;99.90
5617;DHT22;2830;50.656;7.568;2022-10-31T13:05:40;19.60;99.90
5617;DHT22;2830;50.656;7.568;2022-10-31T13:10:48;19.30;99.90
5617;DHT22;2830;50.656;7.568;2022-10-31T13:15:55;19.20;99.90
5617;DHT22;2830;50.656;7.568;2022-10-31T13:18:33;19.10;99.90
5617;DHT22;2830;50.656;7.568;2022-10-31T13:21:06;18.90;99.90
5617;DHT22;2830;50.656;7.568;2022-10-31T13:23:36;19.00;99.90
5617;DHT22;2830;50.656;7.568;2022-10-31T13:26:33;19.10;99.90
5617;DHT22;2830;50.656;7.568;2022-10-31T13:31:31;18.90;99.90
5617;DHT22;2830;50.656;7.568;2022-10-31T13:34:02;18.70;99.90
5617;DHT22;2830;50.656;7.568;2022-10-31T13:36:47;18.70;99.90
5617;DHT22;2830;50.656;7.568;2022-10-31T13:44:28;18.90;99.90
5617;DHT22;2830;50.656;7.568;2022-10-31T13:47:03;18.90;99.90
5617;DHT22;2830;50.656;7.568;2022-10-31T13:52:22;18.90;99.90
5617;DHT22;2830;50.656;7.568;2022-10-31T13:54:51;18.80;99.90
5617;DHT22;2830;50.656;7.568;2022-10-31T13:57:29;18.70;99.90
5617;DHT22;2830;50.656;7.568;2022-10-31T14:02:55;18.70;99.90
5617;DHT22;2830;50.656;7.568;2022-10-31T14:05:29;18.60;99.90
5617;DHT22;2830;50.656;7.568;2022-10-31T14:07:58;18.60;99.90
5617;DHT22;2830;50.656;7.568;2022-10-31T14:10:29;18.40;99.90
5617;DHT22;2830;50.656;7.568;2022-10-31T14:13:13;18.40;99.90
5617;DHT22;2830;50.656;7.568;2022-10-31T14:15:51;18.30;99.90
5617;DHT22;2830;50.656;7.568;2022-10-31T14:18:30;18.20;99.90
5617;DHT22;2830;50.656;7.568;2022-10-31T14:20:57;18.20;99.90
5617;DHT22;2830;50.656;7.568;2022-10-31T14:26:31;18.10;99.90
5617;DHT22;2830;50.656;7.568;2022-10-31T14:29:23;17.90;99.90
5617;DHT22;2830;50.656;7.568;2022-10-31T14:34:33;17.80;99.90
5617;DHT22;2830;50.656;7.568;2022-10-31T14:37:41;17.80;99.90
5617;DHT22;2830;50.656;7.568;2022-10-31T14:46:15;17.90;99.90
5617;DHT22;2830;50.656;7.568;2022-10-31T14:49:06;17.80;99.90
5617;DHT22;2830;50.656;7.568;2022-10-31T14:51:40;17.80;99.90
5617;DHT22;2830;50.656;7.568;2022-10-31T14:54:33;17.80;99.90
5617;DHT22;2830;50.656;7.568;2022-10-31T14:57:03;17.80;99.90
5617;DHT22;2830;50.656;7.568;2022-10-31T14:59:35;17.80;99.90
5617;DHT22;2830;50.656;7.568;2022-10-31T15:02:19;17.70;99.90
5617;DHT22;2830;50.656;7.568;2022-10-31T15:04:48;17.70;99.90
5617;DHT22;2830;50.656;7.568;2022-10-31T15:07:23;17.70;99.90
5617;DHT22;2830;50.656;7.568;2022-10-31T15:09:59;17.60;99.90
5617;DHT22;2830;50.656;7.568;2022-10-31T15:12:31;17.60;99.90
5617;DHT22;2830;50.656;7.568;2022-10-31T15:15:13;17.60;99.90
5617;DHT22;2830;50.656;7.568;2022-10-31T15:17:47;17.50;99.90
5617;DHT22;2830;50.656;7.568;2022-10-31T15:20:21;17.40;99.90
5617;DHT22;2830;50.656;7.568;2022-10-31T15:22:50;17.30;99.90
5617;DHT22;2830;50.656;7.568;2022-10-31T15:25:22;17.30;99.90
5617;DHT22;2830;50.656;7.568;2022-10-31T15:27:50;17.20;99.90
5617;DHT22;2830;50.656;7.568;2022-10-31T15:30:28;17.10;99.90
5617;DHT22;2830;50.656;7.568;2022-10-31T15:32:55;17.10;99.90
5617;DHT22;2830;50.656;7.568;2022-10-31T15:35:27;17.00;99.90
5617;DHT22;2830;50.656;7.568;2022-10-31T15:37:55;16.90;99.90
5617;DHT22;2830;50.656;7.568;2022-10-31T15:40:24;16.90;99.90
5617;DHT22;2830;50.656;7.568;2022-10-31T15:43:00;16.90;99.90
5617;DHT22;2830;50.656;7.568;2022-10-31T15:45:31;16.80;99.90
5617;DHT22;2830;50.656;7.568;2022-10-31T15:48:03;16.70;99.90
5617;DHT22;2830;50.656;7.568;2022-10-31T15:50:41;16.60;99.90
5617;DHT22;2830;50.656;7.568;2022-10-31T15:53:16;16.40;99.90
5617;DHT22;2830;50.656;7.568;2022-10-31T15:55:58;16.30;99.90
5617;DHT22;2830;50.656;7.568;2022-10-31T15:58:25;16.10;99.90
5617;DHT22;2830;50.656;7.568;2022-10-31T16:01:18;15.80;99.90
5617;DHT22;2830;50.656;7.568;2022-10-31T16:06:27;15.20;99.90
5617;DHT22;2830;50.656;7.568;2022-10-31T16:08:54;15.00;99.90
5617;DHT22;2830;50.656;7.568;2022-10-31T16:14:16;14.70;99.90
5617;DHT22;2830;50.656;7.568;2022-10-31T16:16:44;14.50;99.90
5617;DHT22;2830;50.656;7.568;2022-10-31T16:19:20;14.40;99.90
5617;DHT22;2830;50.656;7.568;2022-10-31T16:21:51;14.30;99.90
5617;DHT22;2830;50.656;7.568;2022-10-31T16:27:23;14.10;99.90
5617;DHT22;2830;50.656;7.568;2022-10-31T16:29:53;13.90;99.90
5617;DHT22;2830;50.656;7.568;2022-10-31T16:32:51;13.70;99.90
5617;DHT22;2830;50.656;7.568;2022-10-31T16:37:52;13.40;99.90
5617;DHT22;2830;50.656;7.568;2022-10-31T16:40:18;13.30;99.90
5617;DHT22;2830;50.656;7.568;2022-10-31T16:42:47;13.20;99.90
5617;DHT22;2830;50.656;7.568;2022-10-31T16:45:23;13.20;99.90
5617;DHT22;2830;50.656;7.568;2022-10-31T16:47:50;13.10;99.90
5617;DHT22;2830;50.656;7.568;2022-10-31T16:50:26;13.00;99.90
5617;DHT22;2830;50.656;7.568;2022-10-31T16:52:53;12.90;99.90
5617;DHT22;2830;50.656;7.568;2022-10-31T16:55:50;12.80;99.90
5617;DHT22;2830;50.656;7.568;2022-10-31T16:58:25;12.70;99.90
5617;DHT22;2830;50.656;7.568;2022-10-31T17:00:52;12.70;99.90
5617;DHT22;2830;50.656;7.568;2022-10-31T17:03:19;12.60;99.90
5617;DHT22;2830;50.656;7.568;2022-10-31T17:05:46;12.50;99.90
5617;DHT22;2830;50.656;7.568;2022-10-31T17:08:13;12.50;99.90
5617;DHT22;2830;50.656;7.568;2022-10-31T17:10:42;12.40;99.90
5617;DHT22;2830;50.656;7.568;2022-10-31T17:13:18;12.40;99.90
5617;DHT22;2830;50.656;7.568;2022-10-31T17:15:49;12.20;99.90
5617;DHT22;2830;50.656;7.568;2022-10-31T17:18:16;12.10;99.90
5617;DHT22;2830;50.656;7.568;2022-10-31T17:20:48;12.00;99.90
5617;DHT22;2830;50.656;7.568;2022-10-31T17:23:16;11.90;99.90
5617;DHT22;2830;50.656;7.568;2022-10-31T17:25:45;11.80;99.90
5617;DHT22;2830;50.656;7.568;2022-10-31T17:28:13;11.80;99.90
5617;DHT22;2830;50.656;7.568;2022-10-31T17:30:42;11.80;99.90
5617;DHT22;2830;50.656;7.568;2022-10-31T17:33:13;11.60;99.90
5617;DHT22;2830;50.656;7.568;2022-10-31T17:35:41;11.50;99.90
5617;DHT22;2830;50.656;7.568;2022-10-31T17:38:08;11.40;99.90
5617;DHT22;2830;50.656;7.568;2022-10-31T17:40:37;11.30;99.90
5617;DHT22;2830;50.656;7.568;2022-10-31T17:43:04;11.10;99.90
5617;DHT22;2830;50.656;7.568;2022-10-31T17:45:31;11.10;99.90
5617;DHT22;2830;50.656;7.568;2022-10-31T17:47:57;11.10;99.90
5617;DHT22;2830;50.656;7.568;2022-10-31T17:50:25;11.00;99.90
5617;DHT22;2830;50.656;7.568;2022-10-31T17:52:52;11.00;99.90
5617;DHT22;2830;50.656;7.568;2022-10-31T17:55:19;11.00;99.90
5617;DHT22;2830;50.656;7.568;2022-10-31T17:57:46;10.90;99.90
5617;DHT22;2830;50.656;7.568;2022-10-31T18:00:16;10.80;99.90
5617;DHT22;2830;50.656;7.568;2022-10-31T18:02:43;10.80;99.90
5617;DHT22;2830;50.656;7.568;2022-10-31T18:05:10;10.80;99.90
5617;DHT22;2830;50.656;7.568;2022-10-31T18:07:36;10.70;99.90
5617;DHT22;2830;50.656;7.568;2022-10-31T18:10:04;10.70;99.90
5617;DHT22;2830;50.656;7.568;2022-10-31T18:12:31;10.60;99.90
5617;DHT22;2830;50.656;7.568;2022-10-31T18:15:00;10.50;99.90
5617;DHT22;2830;50.656;7.568;2022-10-31T18:17:27;10.50;99.90
5617;DHT22;2830;50.656;7.568;2022-10-31T18:19:53;10.60;99.90